createdAt,value
2023-01-05T00:02:50.505Z,12.04
2023-01-05T00:06:52.597Z,12.04
2023-01-05T00:11:13.256Z,12.07
2023-01-05T00:15:33.742Z,12.08
2023-01-05T00:19:54.741Z,12.07
2023-01-05T00:23:56.781Z,12.07
2023-01-05T00:27:58.981Z,12.07
2023-01-05T00:32:01.077Z,12.05
2023-01-05T00:36:09.244Z,12.09
2023-01-05T00:40:15.055Z,12.08
2023-01-05T00:44:17.057Z,12.06
2023-01-05T00:48:19.032Z,11.96
2023-01-05T00:52:21.041Z,11.84
2023-01-05T00:56:24.047Z,11.78
2023-01-05T01:00:26.132Z,11.78
2023-01-05T01:04:30.030Z,11.78
2023-01-05T01:08:32.293Z,11.80
2023-01-05T01:12:34.322Z,11.83
2023-01-05T01:16:36.330Z,11.88
2023-01-05T01:20:39.628Z,11.94
2023-01-05T01:24:41.812Z,11.97
2023-01-05T01:28:47.466Z,12.01
2023-01-05T01:32:49.488Z,12.06
2023-01-05T01:36:51.678Z,12.24
2023-01-05T01:40:58.106Z,12.19
2023-01-05T01:45:05.798Z,12.13
2023-01-05T01:49:11.470Z,12.07
2023-01-05T01:53:20.762Z,11.98
2023-01-05T01:57:25.448Z,11.88
2023-01-05T02:01:27.944Z,11.82
2023-01-05T02:05:33.481Z,11.80
2023-01-05T02:09:35.536Z,11.79
2023-01-05T02:13:51.084Z,11.77
2023-01-05T02:18:22.556Z,11.78
2023-01-05T02:22:45.942Z,11.78
2023-01-05T02:27:18.014Z,11.75
2023-01-05T02:31:34.305Z,11.74
2023-01-05T02:35:52.754Z,11.73
2023-01-05T02:40:21.463Z,11.72
2023-01-05T02:44:29.291Z,11.64
2023-01-05T02:48:32.703Z,11.45
2023-01-05T02:52:42.777Z,11.26
2023-01-05T02:56:52.988Z,11.10
2023-01-05T03:00:59.028Z,10.97
2023-01-05T03:05:08.255Z,10.85
2023-01-05T03:09:10.368Z,10.75
2023-01-05T03:13:31.765Z,10.67
2023-01-05T03:17:40.789Z,10.61
2023-01-05T03:22:04.027Z,10.62
2023-01-05T03:26:31.289Z,10.67
2023-01-05T03:31:06.949Z,10.74
2023-01-05T03:35:31.317Z,10.76
2023-01-05T03:39:38.027Z,10.73
2023-01-05T03:43:42.007Z,11.02
2023-01-05T03:47:44.307Z,10.97
2023-01-05T03:51:46.684Z,10.92
2023-01-05T03:55:48.757Z,10.91
2023-01-05T03:59:50.920Z,10.89
2023-01-05T04:03:53.392Z,10.91
2023-01-05T04:07:55.597Z,10.90
2023-01-05T04:11:57.994Z,10.90
2023-01-05T04:16:00.760Z,10.93
2023-01-05T04:20:05.915Z,10.95
2023-01-05T04:24:11.081Z,10.96
2023-01-05T04:28:15.492Z,10.97
2023-01-05T04:32:18.932Z,10.97
2023-01-05T04:36:21.285Z,10.93
2023-01-05T04:40:24.209Z,10.97
2023-01-05T04:44:29.018Z,10.95
2023-01-05T04:48:32.221Z,10.94
2023-01-05T04:52:35.189Z,10.95
2023-01-05T04:56:38.156Z,10.95
2023-01-05T05:00:41.923Z,10.94
2023-01-05T05:04:44.114Z,10.93
2023-01-05T05:08:46.494Z,10.90
2023-01-05T05:12:48.593Z,10.92
2023-01-05T05:16:50.765Z,10.92
2023-01-05T05:20:53.333Z,10.91
2023-01-05T05:24:59.969Z,10.93
2023-01-05T05:29:02.253Z,10.96
2023-01-05T05:33:04.398Z,10.97
2023-01-05T05:37:06.724Z,10.97
2023-01-05T05:41:08.794Z,11.00
2023-01-05T05:45:11.051Z,11.01
2023-01-05T05:49:13.107Z,10.99
2023-01-05T05:53:15.172Z,10.94
2023-01-05T05:57:17.549Z,10.93
2023-01-05T06:01:19.616Z,10.95
2023-01-05T06:05:21.701Z,10.95
2023-01-05T06:09:24.889Z,10.94
2023-01-05T06:13:27.142Z,10.96
2023-01-05T06:17:29.151Z,10.99
2023-01-05T06:21:31.159Z,11.02
2023-01-05T06:25:33.476Z,11.00
2023-01-05T06:29:35.487Z,11.01
2023-01-05T06:33:37.466Z,11.03
2023-01-05T06:37:39.549Z,11.08
2023-01-05T06:41:41.563Z,11.05
2023-01-05T06:45:44.449Z,11.03
2023-01-05T06:49:46.543Z,11.05
2023-01-05T06:53:48.547Z,11.03
2023-01-05T06:57:53.316Z,10.99
2023-01-05T07:01:59.206Z,10.97
2023-01-05T07:06:01.215Z,10.94
2023-01-05T07:10:04.337Z,10.88
2023-01-05T07:14:06.324Z,10.83
2023-01-05T07:18:08.359Z,10.80
2023-01-05T07:22:10.375Z,10.79
2023-01-05T07:26:12.351Z,10.79
2023-01-05T07:30:14.354Z,10.78
2023-01-05T07:34:16.341Z,10.78
2023-01-05T07:38:18.386Z,10.75
2023-01-05T07:42:20.424Z,10.73
2023-01-05T07:46:24.094Z,10.68
2023-01-05T07:50:26.486Z,10.68
2023-01-05T07:54:28.586Z,10.67
2023-01-05T07:58:31.077Z,10.71
2023-01-05T08:02:36.002Z,10.78
2023-01-05T08:06:38.383Z,10.94
2023-01-05T08:10:42.307Z,11.36
2023-01-05T08:14:44.299Z,11.65
2023-01-05T08:18:46.376Z,11.81
2023-01-05T08:22:52.746Z,11.53
2023-01-05T08:26:54.896Z,11.35
2023-01-05T08:31:08.219Z,11.26
2023-01-05T08:35:10.297Z,11.20
2023-01-05T08:39:12.802Z,11.14
2023-01-05T08:43:14.822Z,11.10
2023-01-05T08:47:18.359Z,11.08
2023-01-05T08:51:21.340Z,11.00
2023-01-05T08:55:23.344Z,10.97
2023-01-05T08:59:25.381Z,10.98
2023-01-05T09:03:27.390Z,11.01
2023-01-05T09:07:29.523Z,11.15
2023-01-05T09:11:31.543Z,11.22
2023-01-05T09:15:35.027Z,11.19
2023-01-05T09:19:37.376Z,11.20
2023-01-05T09:23:40.783Z,11.35
2023-01-05T09:27:42.909Z,11.30
2023-01-05T09:31:45.295Z,11.21
2023-01-05T09:35:56.980Z,11.22
2023-01-05T09:39:59.047Z,11.15
2023-01-05T09:44:05.140Z,11.12
2023-01-05T09:48:14.357Z,11.18
2023-01-05T09:52:21.224Z,11.27
2023-01-05T09:57:07.551Z,11.29
2023-01-05T10:01:16.063Z,11.34
2023-01-05T10:05:19.261Z,11.38
2023-01-05T10:09:28.239Z,11.43
2023-01-05T10:13:33.236Z,11.45
2023-01-05T10:17:41.793Z,11.46
2023-01-05T10:22:14.328Z,11.47
2023-01-05T10:26:45.219Z,11.69
2023-01-05T10:31:06.472Z,11.89
2023-01-05T10:35:59.566Z,11.79
2023-01-05T10:40:06.056Z,11.69
2023-01-05T10:44:38.840Z,11.70
2023-01-05T10:48:40.966Z,11.73
2023-01-05T10:52:45.039Z,11.74
2023-01-05T10:56:47.034Z,11.76
2023-01-05T11:00:50.095Z,11.85
2023-01-05T11:04:53.378Z,11.93
2023-01-05T11:08:55.964Z,12.01
2023-01-05T11:13:04.571Z,12.05
2023-01-05T11:17:11.669Z,12.10
2023-01-05T11:21:19.831Z,12.10
2023-01-05T11:25:33.108Z,12.11
2023-01-05T11:29:35.219Z,12.06
2023-01-05T11:33:39.601Z,12.07
2023-01-05T11:37:44.969Z,12.05
2023-01-05T11:41:47.182Z,11.95
2023-01-05T11:46:02.589Z,12.04
2023-01-05T11:50:13.688Z,12.10
2023-01-05T11:54:31.916Z,12.30
2023-01-05T11:58:48.401Z,12.43
2023-01-05T12:03:14.889Z,12.51
2023-01-05T12:07:32.248Z,12.49
2023-01-05T12:12:13.288Z,12.52
2023-01-05T12:16:24.465Z,12.46
2023-01-05T12:20:37.346Z,12.53
2023-01-05T12:24:48.852Z,12.59
2023-01-05T12:29:50.526Z,12.57
2023-01-05T12:34:20.517Z,12.71
2023-01-05T12:39:09.794Z,12.67
2023-01-05T12:43:27.090Z,12.80
2023-01-05T12:48:13.264Z,12.89
2023-01-05T12:52:34.221Z,12.94
2023-01-05T12:56:50.113Z,12.92
2023-01-05T13:00:57.402Z,12.91
2023-01-05T13:05:02.685Z,12.80
2023-01-05T13:09:20.994Z,12.65
2023-01-05T13:13:34.367Z,12.52
2023-01-05T13:17:41.226Z,12.52
2023-01-05T13:21:46.403Z,12.46
2023-01-05T13:25:56.082Z,12.38
2023-01-05T13:30:00.904Z,12.24
2023-01-05T13:34:20.923Z,12.14
2023-01-05T13:38:55.543Z,11.99
2023-01-05T13:43:16.454Z,11.99
2023-01-05T13:47:28.019Z,11.93
2023-01-05T13:51:39.874Z,11.96
2023-01-05T13:56:02.195Z,12.00
2023-01-05T14:00:12.246Z,11.98
2023-01-05T14:04:26.450Z,12.08
2023-01-05T14:08:37.977Z,12.12
2023-01-05T14:12:46.887Z,12.16
2023-01-05T14:16:49.594Z,12.18
2023-01-05T14:20:53.742Z,12.09
2023-01-05T14:24:57.430Z,11.94
2023-01-05T14:28:59.506Z,11.81
2023-01-05T14:33:06.209Z,11.70
2023-01-05T14:37:22.716Z,11.60
2023-01-05T14:41:27.740Z,11.55
2023-01-05T14:45:32.629Z,11.50
2023-01-05T14:49:39.109Z,11.55
2023-01-05T14:53:44.574Z,11.56
2023-01-05T14:57:55.289Z,11.54
2023-01-05T15:02:13.069Z,11.53
2023-01-05T15:06:18.137Z,11.52
2023-01-05T15:10:29.133Z,11.51
2023-01-05T15:14:52.926Z,11.48
2023-01-05T15:19:04.194Z,11.45
2023-01-05T15:23:24.276Z,11.45
2023-01-05T15:27:45.251Z,11.47
2023-01-05T15:31:55.146Z,11.50
2023-01-05T15:36:02.450Z,11.46
2023-01-05T15:40:24.721Z,11.46
2023-01-05T15:44:33.857Z,11.42
2023-01-05T15:48:45.297Z,11.38
2023-01-05T15:52:59.588Z,11.34
2023-01-05T15:57:02.488Z,11.33
2023-01-05T16:01:16.116Z,11.36
2023-01-05T16:05:21.389Z,11.35
2023-01-05T16:09:38.794Z,11.36
2023-01-05T16:13:45.733Z,11.32
2023-01-05T16:17:50.590Z,11.27
2023-01-05T16:22:12.046Z,11.25
2023-01-05T16:26:17.496Z,11.21
2023-01-05T16:30:39.416Z,11.20
2023-01-05T16:34:41.517Z,11.20
2023-01-05T16:38:43.551Z,11.18
2023-01-05T16:42:50.382Z,11.17
2023-01-05T16:47:05.702Z,11.18
2023-01-05T16:51:09.543Z,11.14
2023-01-05T16:55:31.787Z,11.10
2023-01-05T16:59:39.970Z,11.05
2023-01-05T17:03:43.015Z,10.96
2023-01-05T17:07:46.922Z,10.83
2023-01-05T17:11:49.259Z,10.65
2023-01-05T17:15:53.030Z,10.50
2023-01-05T17:19:55.493Z,10.44
2023-01-05T17:23:59.960Z,10.37
2023-01-05T17:28:02.072Z,10.32
2023-01-05T17:32:04.487Z,10.31
2023-01-05T17:36:07.047Z,10.32
2023-01-05T17:40:16.690Z,10.33
2023-01-05T17:44:18.801Z,10.31
2023-01-05T17:48:20.873Z,10.28
2023-01-05T17:52:23.032Z,10.31
2023-01-05T17:56:26.007Z,10.38
2023-01-05T18:00:33.120Z,10.40
2023-01-05T18:04:35.234Z,10.38
2023-01-05T18:08:38.180Z,10.34
2023-01-05T18:16:46.297Z,10.17
2023-01-05T18:20:51.385Z,10.17
2023-01-05T18:24:53.688Z,10.14
2023-01-05T18:28:55.711Z,10.06
2023-01-05T18:32:58.379Z,10.04
2023-01-05T18:37:05.784Z,10.08
2023-01-05T18:41:09.343Z,10.16
2023-01-05T18:45:19.089Z,10.30
2023-01-05T18:49:21.994Z,10.41
2023-01-05T18:53:24.257Z,10.41
2023-01-05T18:57:26.537Z,10.45
2023-01-05T19:01:28.590Z,10.50
2023-01-05T19:05:30.647Z,10.50
2023-01-05T19:09:32.764Z,10.43
2023-01-05T19:13:34.808Z,10.42
2023-01-05T19:17:36.902Z,10.43
2023-01-05T19:21:41.136Z,10.46
2023-01-05T19:25:43.172Z,10.50
2023-01-05T19:29:45.253Z,10.45
2023-01-05T19:33:47.239Z,10.43
2023-01-05T19:37:49.340Z,10.45
2023-01-05T19:41:51.505Z,10.42
2023-01-05T19:45:58.282Z,10.34
2023-01-05T19:50:00.354Z,10.30
2023-01-05T19:54:04.720Z,10.31
2023-01-05T19:58:06.703Z,10.32
2023-01-05T20:02:10.017Z,10.40
2023-01-05T20:06:16.400Z,10.41
2023-01-05T20:10:18.447Z,10.40
2023-01-05T20:14:21.785Z,10.46
2023-01-05T20:18:23.748Z,10.49
2023-01-05T20:22:25.772Z,10.48
2023-01-05T20:26:30.369Z,10.42
2023-01-05T20:30:34.263Z,10.34
2023-01-05T20:34:38.806Z,10.31
2023-01-05T20:38:40.803Z,10.26
2023-01-05T20:42:42.810Z,10.23
2023-01-05T20:46:47.039Z,10.21
2023-01-05T20:50:49.081Z,10.23
2023-01-05T20:54:52.467Z,10.24
2023-01-05T20:58:54.797Z,10.23
2023-01-05T21:02:56.931Z,10.21
2023-01-05T21:07:01.045Z,10.22
2023-01-05T21:11:04.448Z,10.30
2023-01-05T21:15:07.152Z,10.42
2023-01-05T21:19:11.480Z,10.44
2023-01-05T21:23:13.492Z,10.42
2023-01-05T21:27:15.525Z,10.45
2023-01-05T21:31:20.142Z,10.54
2023-01-05T21:35:22.171Z,10.58
2023-01-05T21:39:28.180Z,10.64
2023-01-05T21:43:32.863Z,10.76
2023-01-05T21:47:35.850Z,10.84
2023-01-05T21:51:57.012Z,10.90
2023-01-05T21:56:18.021Z,10.99
2023-01-05T22:00:20.115Z,10.93
2023-01-05T22:04:22.334Z,10.87
2023-01-05T22:08:24.869Z,10.91
2023-01-05T22:12:26.892Z,10.94
2023-01-05T22:16:29.108Z,10.99
2023-01-05T22:20:31.119Z,11.05
2023-01-05T22:24:33.311Z,11.11
2023-01-05T22:28:36.695Z,11.08
2023-01-05T22:32:38.717Z,11.04
2023-01-05T22:36:40.749Z,11.01
2023-01-05T22:40:42.801Z,10.97
2023-01-05T22:44:44.768Z,10.95
2023-01-05T22:48:48.519Z,10.96
2023-01-05T22:52:50.561Z,10.94
2023-01-05T22:56:52.571Z,10.96
2023-01-05T23:00:54.741Z,10.93
2023-01-05T23:04:56.800Z,10.95
2023-01-05T23:08:59.138Z,10.94
2023-01-05T23:13:01.337Z,10.95
2023-01-05T23:17:03.417Z,10.95
2023-01-05T23:21:08.550Z,10.96
2023-01-05T23:25:11.059Z,10.96
2023-01-05T23:29:13.081Z,11.01
2023-01-05T23:33:16.575Z,11.05
2023-01-05T23:37:18.589Z,11.08
2023-01-05T23:41:20.755Z,11.09
2023-01-05T23:45:22.778Z,11.05
2023-01-05T23:49:24.814Z,11.05
2023-01-05T23:53:26.938Z,11.04
2023-01-05T23:57:30.386Z,11.00
